Time,TemperatureF,DewpointF,PressureIn,WindDirection,WindDirectionDegrees,WindSpeedMPH,WindSpeedGustMPH,Humidity,HourlyPrecipIn,Conditions,Clouds,dailyrainin,SolarRadiationWatts/m^2,SoftwareType,DateUTC
2013-02-04 00:21:00,35.0,29.0,-100.00,East,86,3.0,9.0,77,0.00,,,0.03,0.000000,,2013-02-04 09:21:00,
2013-02-04 00:31:00,35.0,29.0,-100.00,East,86,3.0,9.0,77,0.00,,,0.03,0.000000,,2013-02-04 09:31:00,
2013-02-04 00:41:00,35.0,29.0,-100.00,East,86,3.0,9.0,77,0.00,,,0.03,0.000000,,2013-02-04 09:41:00,
2013-02-04 00:51:00,35.0,29.0,-100.00,East,86,3.0,9.0,77,0.00,,,0.03,0.000000,,2013-02-04 09:51:00,
2013-02-04 01:11:00,32.0,29.0,-100.00,East,91,2.0,8.0,87,0.00,,,0.03,0.000000,,2013-02-04 10:11:00,
2013-02-04 01:21:00,32.0,29.0,-100.00,East,91,2.0,8.0,87,0.00,,,0.03,0.000000,,2013-02-04 10:21:00,
2013-02-04 01:32:00,32.0,29.0,-100.00,East,91,2.0,8.0,87,0.00,,,0.03,0.000000,,2013-02-04 10:32:00,
2013-02-04 01:41:00,32.0,29.0,-100.00,East,91,2.0,8.0,87,0.00,,,0.03,0.000000,,2013-02-04 10:41:00,
2013-02-04 01:51:00,32.0,29.0,-100.00,East,91,2.0,8.0,87,0.00,,,0.03,0.000000,,2013-02-04 10:51:00,
2013-02-04 02:11:00,34.0,28.0,-100.00,NE,50,2.0,9.0,80,0.00,,,0.03,0.000000,,2013-02-04 11:11:00,
2013-02-04 02:22:00,34.0,28.0,-100.00,NE,50,2.0,9.0,80,0.00,,,0.03,0.000000,,2013-02-04 11:22:00,
2013-02-04 02:32:00,34.0,28.0,-100.00,NE,50,2.0,9.0,80,0.00,,,0.03,0.000000,,2013-02-04 11:32:00,
2013-02-04 02:42:00,34.0,28.0,-100.00,NE,50,2.0,9.0,80,0.00,,,0.03,0.000000,,2013-02-04 11:42:00,
2013-02-04 02:52:00,34.0,28.0,-100.00,NE,50,2.0,9.0,80,0.00,,,0.03,0.000000,,2013-02-04 11:52:00,
2013-02-04 03:12:00,36.0,28.0,-100.00,NE,52,3.0,9.0,72,0.00,,,0.03,0.000000,,2013-02-04 12:12:00,
2013-02-04 03:21:00,36.0,28.0,-100.00,NE,52,3.0,9.0,72,0.00,,,0.03,0.000000,,2013-02-04 12:21:00,
2013-02-04 03:32:00,36.0,28.0,-100.00,NE,52,3.0,9.0,72,0.00,,,0.03,0.000000,,2013-02-04 12:32:00,
2013-02-04 03:42:00,36.0,28.0,-100.00,NE,52,3.0,9.0,72,0.00,,,0.03,0.000000,,2013-02-04 12:42:00,
2013-02-04 03:52:00,36.0,28.0,-100.00,NE,52,3.0,9.0,72,0.00,,,0.03,0.000000,,2013-02-04 12:52:00,
2013-02-04 04:11:00,38.0,29.0,-100.00,NE,48,3.0,9.0,70,0.00,,,0.03,0.000000,,2013-02-04 13:11:00,
2013-02-04 04:41:00,38.0,29.0,-100.00,NE,48,3.0,9.0,70,0.00,,,0.03,0.000000,,2013-02-04 13:41:00,
2013-02-04 04:51:00,38.0,29.0,-100.00,NE,48,3.0,9.0,70,0.00,,,0.03,0.000000,,2013-02-04 13:51:00,
2013-02-04 05:21:00,37.0,28.0,-100.00,NE,53,3.0,13.0,69,0.00,,,0.03,0.000000,,2013-02-04 14:21:00,
2013-02-04 05:32:00,37.0,28.0,-100.00,NE,53,3.0,13.0,69,0.00,,,0.03,0.000000,,2013-02-04 14:32:00,
2013-02-04 05:42:00,37.0,28.0,-100.00,NE,53,3.0,13.0,69,0.00,,,0.03,0.000000,,2013-02-04 14:42:00,
2013-02-04 05:52:00,37.0,28.0,-100.00,NE,53,3.0,13.0,69,0.00,,,0.03,0.000000,,2013-02-04 14:52:00,
2013-02-04 06:12:00,37.0,29.0,-100.00,NE,38,3.0,10.0,73,0.00,,,0.03,0.000000,,2013-02-04 15:12:00,
2013-02-04 06:23:00,37.0,29.0,-100.00,NE,38,3.0,10.0,73,0.00,,,0.03,0.000000,,2013-02-04 15:23:00,
2013-02-04 06:33:00,37.0,29.0,-100.00,NE,38,3.0,10.0,73,0.00,,,0.03,0.000000,,2013-02-04 15:33:00,
2013-02-04 06:43:00,37.0,29.0,-100.00,NE,38,3.0,10.0,73,0.00,,,0.03,0.000000,,2013-02-04 15:43:00,
2013-02-04 06:52:00,37.0,29.0,-100.00,NE,38,3.0,10.0,73,0.00,,,0.03,0.000000,,2013-02-04 15:52:00,
2013-02-04 09:11:00,37.0,30.0,-100.00,NE,49,3.0,11.0,75,-99.99,,,0.03,0.000000,,2013-02-04 18:11:00,
2013-02-04 09:22:00,37.0,30.0,-100.00,NE,49,3.0,11.0,75,-99.99,,,0.03,0.000000,,2013-02-04 18:22:00,
2013-02-04 09:31:00,37.0,30.0,-100.00,NE,49,3.0,11.0,75,-99.99,,,0.03,0.000000,,2013-02-04 18:31:00,
2013-02-04 09:41:00,37.0,30.0,-100.00,NE,49,3.0,11.0,75,-99.99,,,0.03,0.000000,,2013-02-04 18:41:00,
2013-02-04 09:52:00,37.0,30.0,-100.00,NE,49,3.0,11.0,75,-99.99,,,0.03,0.000000,,2013-02-04 18:52:00,
2013-02-04 10:22:00,37.0,31.0,-100.00,NE,43,4.0,11.0,80,0.00,,,0.03,4.000000,,2013-02-04 19:22:00,
2013-02-04 10:31:00,37.0,31.0,-100.00,NE,43,4.0,11.0,80,0.00,,,0.03,4.000000,,2013-02-04 19:31:00,
2013-02-04 10:41:00,37.0,31.0,-100.00,NE,43,4.0,11.0,80,0.00,,,0.03,4.000000,,2013-02-04 19:41:00,
2013-02-04 10:51:00,37.0,31.0,-100.00,NE,43,4.0,11.0,80,0.00,,,0.03,4.000000,,2013-02-04 19:51:00,
2013-02-04 11:12:00,38.0,31.0,-100.00,ENE,63,5.0,12.0,77,0.01,,,0.04,22.000000,,2013-02-04 20:12:00,
2013-02-04 11:21:00,38.0,31.0,-100.00,ENE,63,5.0,12.0,77,0.01,,,0.04,22.000000,,2013-02-04 20:21:00,
2013-02-04 11:32:00,38.0,31.0,-100.00,ENE,63,5.0,12.0,77,0.01,,,0.04,22.000000,,2013-02-04 20:32:00,
2013-02-04 11:42:00,38.0,31.0,-100.00,ENE,63,5.0,12.0,77,0.01,,,0.04,22.000000,,2013-02-04 20:42:00,
2013-02-04 11:52:00,38.0,31.0,-100.00,ENE,63,5.0,12.0,77,0.01,,,0.04,22.000000,,2013-02-04 20:52:00,
2013-02-04 12:11:00,39.0,30.0,-100.00,East,79,3.0,12.0,71,0.01,,,0.05,55.000000,,2013-02-04 21:11:00,
2013-02-04 12:22:00,39.0,30.0,-100.00,East,79,3.0,12.0,71,0.01,,,0.05,55.000000,,2013-02-04 21:22:00,
2013-02-04 12:31:00,39.0,30.0,-100.00,East,79,3.0,12.0,71,0.01,,,0.05,55.000000,,2013-02-04 21:31:00,
2013-02-04 12:42:00,39.0,30.0,-100.00,East,79,3.0,12.0,71,0.01,,,0.05,55.000000,,2013-02-04 21:42:00,
2013-02-04 12:51:00,39.0,30.0,-100.00,East,79,3.0,12.0,71,0.01,,,0.05,55.000000,,2013-02-04 21:51:00,
2013-02-04 13:12:00,40.0,30.0,-100.00,ENE,68,1.0,8.0,68,0.02,,,0.07,68.000000,,2013-02-04 22:12:00,
2013-02-04 13:21:00,40.0,30.0,-100.00,ENE,68,1.0,8.0,68,0.02,,,0.07,68.000000,,2013-02-04 22:21:00,
2013-02-04 13:32:00,40.0,30.0,-100.00,ENE,68,1.0,8.0,68,0.02,,,0.07,68.000000,,2013-02-04 22:32:00,
2013-02-04 13:41:00,40.0,30.0,-100.00,ENE,68,1.0,8.0,68,0.02,,,0.07,68.000000,,2013-02-04 22:41:00,
2013-02-04 13:51:00,40.0,30.0,-100.00,ENE,68,1.0,8.0,68,0.02,,,0.07,68.000000,,2013-02-04 22:51:00,
2013-02-04 14:21:00,41.0,30.0,-100.00,East,86,5.0,11.0,65,0.01,,,0.08,80.000000,,2013-02-04 23:21:00,
2013-02-04 14:32:00,41.0,30.0,-100.00,East,86,5.0,11.0,65,0.01,,,0.08,80.000000,,2013-02-04 23:32:00,
2013-02-04 14:41:00,41.0,30.0,-100.00,East,86,5.0,11.0,65,0.01,,,0.08,80.000000,,2013-02-04 23:41:00,
2013-02-04 14:52:00,41.0,30.0,-100.00,East,86,5.0,11.0,65,0.01,,,0.08,80.000000,,2013-02-04 23:52:00,
2013-02-04 15:21:00,40.0,30.0,-100.00,ENE,72,5.0,12.0,66,0.02,,,0.10,74.000000,,2013-02-05 00:21:00,
2013-02-04 15:31:00,40.0,30.0,-100.00,ENE,72,5.0,12.0,66,0.02,,,0.10,74.000000,,2013-02-05 00:31:00,
2013-02-04 15:42:00,40.0,30.0,-100.00,ENE,72,5.0,12.0,66,0.02,,,0.10,74.000000,,2013-02-05 00:42:00,
2013-02-04 15:51:00,40.0,30.0,-100.00,ENE,72,5.0,12.0,66,0.02,,,0.10,74.000000,,2013-02-05 00:51:00,
2013-02-04 16:11:00,40.0,29.0,-100.00,ENE,72,5.0,13.0,65,0.01,,,0.10,45.000000,,2013-02-05 01:11:00,
2013-02-04 16:21:00,40.0,29.0,-100.00,ENE,72,5.0,13.0,65,0.01,,,0.10,45.000000,,2013-02-05 01:21:00,
2013-02-04 16:32:00,40.0,29.0,-100.00,ENE,72,5.0,13.0,65,0.01,,,0.10,45.000000,,2013-02-05 01:32:00,
2013-02-04 16:42:00,40.0,29.0,-100.00,ENE,72,5.0,13.0,65,0.01,,,0.10,45.000000,,2013-02-05 01:42:00,
2013-02-04 16:51:00,40.0,29.0,-100.00,ENE,72,5.0,13.0,65,0.01,,,0.10,45.000000,,2013-02-05 01:51:00,
2013-02-04 17:21:00,40.0,28.0,-100.00,ENE,78,4.0,14.0,63,0.01,,,0.10,19.000000,,2013-02-05 02:21:00,
2013-02-04 17:31:00,40.0,28.0,-100.00,ENE,78,4.0,14.0,63,0.01,,,0.10,19.000000,,2013-02-05 02:31:00,
2013-02-04 17:41:00,40.0,28.0,-100.00,ENE,78,4.0,14.0,63,0.01,,,0.10,19.000000,,2013-02-05 02:41:00,
2013-02-04 17:52:00,40.0,28.0,-100.00,ENE,78,4.0,14.0,63,0.01,,,0.10,19.000000,,2013-02-05 02:52:00,
2013-02-04 18:21:00,39.0,28.0,-100.00,ENE,59,3.0,11.0,65,0.00,,,0.09,2.000000,,2013-02-05 03:21:00,
2013-02-04 18:31:00,39.0,28.0,-100.00,ENE,59,3.0,11.0,65,0.00,,,0.09,2.000000,,2013-02-05 03:31:00,
2013-02-04 18:41:00,39.0,28.0,-100.00,ENE,59,3.0,11.0,65,0.00,,,0.09,2.000000,,2013-02-05 03:41:00,
2013-02-04 18:51:00,39.0,28.0,-100.00,ENE,59,3.0,11.0,65,0.00,,,0.09,2.000000,,2013-02-05 03:51:00,
2013-02-04 19:11:00,39.0,29.0,-100.00,ENE,75,5.0,14.0,66,0.00,,,0.09,0.000000,,2013-02-05 04:11:00,
2013-02-04 19:21:00,39.0,29.0,-100.00,ENE,75,5.0,14.0,66,0.00,,,0.09,0.000000,,2013-02-05 04:21:00,
2013-02-04 19:31:00,39.0,29.0,-100.00,ENE,75,5.0,14.0,66,0.00,,,0.09,0.000000,,2013-02-05 04:31:00,
2013-02-04 19:41:00,39.0,29.0,-100.00,ENE,75,5.0,14.0,66,0.00,,,0.09,0.000000,,2013-02-05 04:41:00,
2013-02-04 19:52:00,39.0,29.0,-100.00,ENE,75,5.0,14.0,66,0.00,,,0.09,0.000000,,2013-02-05 04:52:00,
2013-02-04 20:11:00,39.0,27.0,-100.00,ENE,74,5.0,14.0,63,0.00,,,0.09,0.000000,,2013-02-05 05:11:00,
2013-02-04 20:21:00,39.0,27.0,-100.00,ENE,74,5.0,14.0,63,0.00,,,0.09,0.000000,,2013-02-05 05:21:00,
2013-02-04 20:32:00,39.0,27.0,-100.00,ENE,74,5.0,14.0,63,0.00,,,0.09,0.000000,,2013-02-05 05:32:00,
2013-02-04 20:42:00,39.0,27.0,-100.00,ENE,74,5.0,14.0,63,0.00,,,0.09,0.000000,,2013-02-05 05:42:00,
2013-02-04 20:52:00,39.0,27.0,-100.00,ENE,74,5.0,14.0,63,0.00,,,0.09,0.000000,,2013-02-05 05:52:00,
2013-02-04 21:21:00,39.0,27.0,-100.00,ENE,67,5.0,12.0,63,0.00,,,0.09,0.000000,,2013-02-05 06:21:00,
2013-02-04 21:31:00,39.0,27.0,-100.00,ENE,67,5.0,12.0,63,0.00,,,0.09,0.000000,,2013-02-05 06:31:00,
2013-02-04 21:41:00,39.0,27.0,-100.00,ENE,67,5.0,12.0,63,0.00,,,0.09,0.000000,,2013-02-05 06:41:00,
2013-02-04 21:51:00,39.0,27.0,-100.00,ENE,67,5.0,12.0,63,0.00,,,0.09,0.000000,,2013-02-05 06:51:00,
2013-02-04 22:11:00,38.0,28.0,-100.00,ENE,71,5.0,11.0,68,0.00,,,0.09,0.000000,,2013-02-05 07:11:00,
2013-02-04 22:22:00,38.0,28.0,-100.00,ENE,71,5.0,11.0,68,0.00,,,0.09,0.000000,,2013-02-05 07:22:00,
2013-02-04 22:31:00,38.0,28.0,-100.00,ENE,71,5.0,11.0,68,0.00,,,0.09,0.000000,,2013-02-05 07:31:00,
2013-02-04 22:41:00,38.0,28.0,-100.00,ENE,71,5.0,11.0,68,0.00,,,0.09,0.000000,,2013-02-05 07:41:00,
2013-02-04 22:51:00,38.0,28.0,-100.00,ENE,71,5.0,11.0,68,0.00,,,0.09,0.000000,,2013-02-05 07:51:00,
2013-02-04 23:11:00,39.0,26.0,-100.00,East,82,3.0,14.0,60,0.00,,,0.09,0.000000,,2013-02-05 08:11:00,
2013-02-04 23:21:00,39.0,26.0,-100.00,East,82,3.0,14.0,60,0.00,,,0.09,0.000000,,2013-02-05 08:21:00,
2013-02-04 23:31:00,39.0,26.0,-100.00,East,82,3.0,14.0,60,0.00,,,0.09,0.000000,,2013-02-05 08:31:00,
2013-02-04 23:41:00,39.0,26.0,-100.00,East,82,3.0,14.0,60,0.00,,,0.09,0.000000,,2013-02-05 08:41:00,
2013-02-04 23:52:00,39.0,26.0,-100.00,East,82,3.0,14.0,60,0.00,,,0.09,0.000000,,2013-02-05 08:52:00,